sensor_id;sensor_type;location;lat;lon;timestamp;P1;durP1;ratioP1;P2;durP2;ratioP2
41705;SDS011;27385;51.096;17.190;2023-09-19T00:01:30;20.50;;;10.10;;
41705;SDS011;27385;51.096;17.190;2023-09-19T00:04:01;21.30;;;9.90;;
41705;SDS011;27385;51.096;17.190;2023-09-19T00:06:37;19.80;;;9.10;;
41705;SDS011;27385;51.096;17.190;2023-09-19T00:09:08;23.20;;;8.60;;
41705;SDS011;27385;51.096;17.190;2023-09-19T00:11:39;19.80;;;7.40;;
41705;SDS011;27385;51.096;17.190;2023-09-19T00:14:09;13.90;;;5.30;;
41705;SDS011;27385;51.096;17.190;2023-09-19T00:16:42;13.60;;;4.40;;
41705;SDS011;27385;51.096;17.190;2023-09-19T00:19:14;9.80;;;2.20;;
41705;SDS011;27385;51.096;17.190;2023-09-19T00:21:44;10.30;;;2.20;;
41705;SDS011;27385;51.096;17.190;2023-09-19T00:24:15;8.30;;;1.60;;
41705;SDS011;27385;51.096;17.190;2023-09-19T00:26:46;11.30;;;1.30;;
41705;SDS011;27385;51.096;17.190;2023-09-19T00:29:16;6.50;;;1.10;;
41705;SDS011;27385;51.096;17.190;2023-09-19T00:31:47;7.00;;;0.90;;
41705;SDS011;27385;51.096;17.190;2023-09-19T00:34:18;4.70;;;1.20;;
41705;SDS011;27385;51.096;17.190;2023-09-19T00:36:50;8.40;;;1.10;;
41705;SDS011;27385;51.096;17.190;2023-09-19T00:39:22;5.70;;;0.80;;
41705;SDS011;27385;51.096;17.190;2023-09-19T00:41:53;8.00;;;0.90;;
41705;SDS011;27385;51.096;17.190;2023-09-19T00:44:24;4.40;;;0.80;;
41705;SDS011;27385;51.096;17.190;2023-09-19T00:46:55;11.70;;;1.20;;
41705;SDS011;27385;51.096;17.190;2023-09-19T00:49:26;4.10;;;1.20;;
41705;SDS011;27385;51.096;17.190;2023-09-19T00:51:58;5.70;;;0.70;;
41705;SDS011;27385;51.096;17.190;2023-09-19T00:54:29;8.10;;;0.90;;
41705;SDS011;27385;51.096;17.190;2023-09-19T00:57:01;5.30;;;0.90;;
41705;SDS011;27385;51.096;17.190;2023-09-19T00:59:33;5.50;;;0.90;;
41705;SDS011;27385;51.096;17.190;2023-09-19T01:02:04;5.70;;;0.80;;
41705;SDS011;27385;51.096;17.190;2023-09-19T01:04:35;5.90;;;0.70;;
41705;SDS011;27385;51.096;17.190;2023-09-19T01:07:07;4.90;;;0.80;;
41705;SDS011;27385;51.096;17.190;2023-09-19T01:09:38;5.20;;;0.70;;
41705;SDS011;27385;51.096;17.190;2023-09-19T01:12:10;3.80;;;0.70;;
41705;SDS011;27385;51.096;17.190;2023-09-19T01:14:48;8.70;;;0.70;;
41705;SDS011;27385;51.096;17.190;2023-09-19T01:20:06;4.00;;;0.80;;
41705;SDS011;27385;51.096;17.190;2023-09-19T01:22:52;9.60;;;0.70;;
41705;SDS011;27385;51.096;17.190;2023-09-19T01:25:46;4.10;;;0.70;;
41705;SDS011;27385;51.096;17.190;2023-09-19T01:28:34;4.60;;;0.70;;
41705;SDS011;27385;51.096;17.190;2023-09-19T01:33:59;3.90;;;0.60;;
41705;SDS011;27385;51.096;17.190;2023-09-19T01:36:32;3.70;;;0.70;;
41705;SDS011;27385;51.096;17.190;2023-09-19T01:39:07;4.70;;;0.70;;
41705;SDS011;27385;51.096;17.190;2023-09-19T01:41:51;6.30;;;0.80;;
41705;SDS011;27385;51.096;17.190;2023-09-19T01:44:31;6.00;;;1.10;;
41705;SDS011;27385;51.096;17.190;2023-09-19T01:47:17;6.30;;;0.70;;
41705;SDS011;27385;51.096;17.190;2023-09-19T01:50:01;3.00;;;0.70;;
41705;SDS011;27385;51.096;17.190;2023-09-19T01:52:42;4.70;;;0.70;;
41705;SDS011;27385;51.096;17.190;2023-09-19T01:55:18;6.70;;;0.80;;
41705;SDS011;27385;51.096;17.190;2023-09-19T01:57:51;3.20;;;0.60;;
41705;SDS011;27385;51.096;17.190;2023-09-19T02:00:29;4.10;;;0.50;;
41705;SDS011;27385;51.096;17.190;2023-09-19T02:03:01;5.00;;;1.10;;
41705;SDS011;27385;51.096;17.190;2023-09-19T02:05:34;6.40;;;0.80;;
41705;SDS011;27385;51.096;17.190;2023-09-19T02:08:05;7.90;;;0.60;;
41705;SDS011;27385;51.096;17.190;2023-09-19T02:10:36;5.30;;;0.70;;
41705;SDS011;27385;51.096;17.190;2023-09-19T02:13:07;5.40;;;0.80;;
41705;SDS011;27385;51.096;17.190;2023-09-19T02:15:38;10.60;;;0.70;;
41705;SDS011;27385;51.096;17.190;2023-09-19T02:18:09;4.10;;;0.70;;
41705;SDS011;27385;51.096;17.190;2023-09-19T02:20:40;3.00;;;0.60;;
41705;SDS011;27385;51.096;17.190;2023-09-19T02:23:11;5.20;;;0.60;;
41705;SDS011;27385;51.096;17.190;2023-09-19T02:25:52;4.50;;;0.90;;
41705;SDS011;27385;51.096;17.190;2023-09-19T02:28:25;4.30;;;0.70;;
41705;SDS011;27385;51.096;17.190;2023-09-19T02:30:57;3.60;;;0.60;;
41705;SDS011;27385;51.096;17.190;2023-09-19T02:33:28;6.90;;;0.90;;
41705;SDS011;27385;51.096;17.190;2023-09-19T02:36:00;4.30;;;0.60;;
41705;SDS011;27385;51.096;17.190;2023-09-19T02:38:33;6.10;;;0.80;;
41705;SDS011;27385;51.096;17.190;2023-09-19T02:41:05;3.70;;;0.70;;
41705;SDS011;27385;51.096;17.190;2023-09-19T02:43:35;5.70;;;0.80;;
41705;SDS011;27385;51.096;17.190;2023-09-19T02:46:06;3.40;;;0.60;;
41705;SDS011;27385;51.096;17.190;2023-09-19T02:48:40;5.10;;;0.50;;
41705;SDS011;27385;51.096;17.190;2023-09-19T02:51:11;5.30;;;0.70;;
41705;SDS011;27385;51.096;17.190;2023-09-19T02:53:42;5.30;;;0.70;;
41705;SDS011;27385;51.096;17.190;2023-09-19T02:56:15;6.10;;;0.70;;
41705;SDS011;27385;51.096;17.190;2023-09-19T02:58:46;6.20;;;0.90;;
41705;SDS011;27385;51.096;17.190;2023-09-19T03:01:17;7.20;;;0.90;;
41705;SDS011;27385;51.096;17.190;2023-09-19T03:03:48;6.30;;;0.80;;
41705;SDS011;27385;51.096;17.190;2023-09-19T03:06:19;9.60;;;1.10;;
41705;SDS011;27385;51.096;17.190;2023-09-19T03:08:49;6.30;;;0.90;;
41705;SDS011;27385;51.096;17.190;2023-09-19T03:11:20;4.50;;;0.80;;
41705;SDS011;27385;51.096;17.190;2023-09-19T03:13:52;5.10;;;0.70;;
41705;SDS011;27385;51.096;17.190;2023-09-19T03:16:23;6.10;;;0.90;;
41705;SDS011;27385;51.096;17.190;2023-09-19T03:18:54;8.90;;;0.80;;
41705;SDS011;27385;51.096;17.190;2023-09-19T03:21:26;3.00;;;0.60;;
41705;SDS011;27385;51.096;17.190;2023-09-19T03:23:57;9.20;;;0.90;;
41705;SDS011;27385;51.096;17.190;2023-09-19T03:26:28;8.20;;;1.00;;
41705;SDS011;27385;51.096;17.190;2023-09-19T03:28:58;3.80;;;0.80;;
41705;SDS011;27385;51.096;17.190;2023-09-19T03:31:34;4.80;;;0.80;;
41705;SDS011;27385;51.096;17.190;2023-09-19T03:34:05;7.20;;;1.00;;
41705;SDS011;27385;51.096;17.190;2023-09-19T03:36:36;5.90;;;0.90;;
41705;SDS011;27385;51.096;17.190;2023-09-19T03:39:08;7.30;;;0.90;;
41705;SDS011;27385;51.096;17.190;2023-09-19T03:41:39;5.10;;;1.10;;
41705;SDS011;27385;51.096;17.190;2023-09-19T03:44:10;7.60;;;0.90;;
41705;SDS011;27385;51.096;17.190;2023-09-19T03:46:41;5.90;;;1.00;;
41705;SDS011;27385;51.096;17.190;2023-09-19T03:49:12;6.60;;;1.10;;
41705;SDS011;27385;51.096;17.190;2023-09-19T03:51:42;8.70;;;1.20;;
41705;SDS011;27385;51.096;17.190;2023-09-19T03:54:14;7.60;;;1.00;;
41705;SDS011;27385;51.096;17.190;2023-09-19T03:56:47;6.50;;;0.90;;
41705;SDS011;27385;51.096;17.190;2023-09-19T03:59:18;5.10;;;0.90;;
41705;SDS011;27385;51.096;17.190;2023-09-19T04:01:49;9.10;;;0.90;;
41705;SDS011;27385;51.096;17.190;2023-09-19T04:04:23;6.50;;;0.90;;
41705;SDS011;27385;51.096;17.190;2023-09-19T04:06:54;9.70;;;1.00;;
41705;SDS011;27385;51.096;17.190;2023-09-19T04:09:25;5.30;;;1.10;;
41705;SDS011;27385;51.096;17.190;2023-09-19T04:11:56;7.30;;;1.10;;
41705;SDS011;27385;51.096;17.190;2023-09-19T04:14:30;5.70;;;1.00;;
41705;SDS011;27385;51.096;17.190;2023-09-19T04:17:00;6.20;;;1.00;;
41705;SDS011;27385;51.096;17.190;2023-09-19T04:19:32;7.20;;;1.10;;
41705;SDS011;27385;51.096;17.190;2023-09-19T04:22:03;6.80;;;0.90;;
41705;SDS011;27385;51.096;17.190;2023-09-19T04:24:34;7.80;;;1.00;;
41705;SDS011;27385;51.096;17.190;2023-09-19T04:27:05;7.00;;;1.10;;
41705;SDS011;27385;51.096;17.190;2023-09-19T04:29:37;9.30;;;1.50;;
41705;SDS011;27385;51.096;17.190;2023-09-19T04:32:09;6.20;;;1.00;;
41705;SDS011;27385;51.096;17.190;2023-09-19T04:34:41;4.70;;;1.00;;
41705;SDS011;27385;51.096;17.190;2023-09-19T04:37:11;6.30;;;1.10;;
41705;SDS011;27385;51.096;17.190;2023-09-19T04:39:43;6.60;;;1.30;;
41705;SDS011;27385;51.096;17.190;2023-09-19T04:42:15;9.70;;;1.50;;
41705;SDS011;27385;51.096;17.190;2023-09-19T04:44:46;6.90;;;1.10;;
41705;SDS011;27385;51.096;17.190;2023-09-19T04:47:18;9.40;;;1.30;;
41705;SDS011;27385;51.096;17.190;2023-09-19T04:49:49;11.70;;;1.40;;
41705;SDS011;27385;51.096;17.190;2023-09-19T04:52:19;5.90;;;1.10;;
41705;SDS011;27385;51.096;17.190;2023-09-19T04:54:50;8.10;;;1.50;;
41705;SDS011;27385;51.096;17.190;2023-09-19T04:57:21;7.50;;;2.00;;
41705;SDS011;27385;51.096;17.190;2023-09-19T04:59:53;10.40;;;2.00;;
41705;SDS011;27385;51.096;17.190;2023-09-19T05:02:25;9.00;;;1.90;;
41705;SDS011;27385;51.096;17.190;2023-09-19T05:04:58;9.40;;;1.60;;
41705;SDS011;27385;51.096;17.190;2023-09-19T05:07:29;9.20;;;1.10;;
41705;SDS011;27385;51.096;17.190;2023-09-19T05:10:02;11.30;;;1.60;;
41705;SDS011;27385;51.096;17.190;2023-09-19T05:12:34;7.90;;;1.50;;
41705;SDS011;27385;51.096;17.190;2023-09-19T05:15:06;11.00;;;2.10;;
41705;SDS011;27385;51.096;17.190;2023-09-19T05:17:37;8.10;;;1.40;;
41705;SDS011;27385;51.096;17.190;2023-09-19T05:20:09;9.60;;;1.50;;
41705;SDS011;27385;51.096;17.190;2023-09-19T05:22:42;7.50;;;1.40;;
41705;SDS011;27385;51.096;17.190;2023-09-19T05:25:14;11.00;;;1.70;;
41705;SDS011;27385;51.096;17.190;2023-09-19T05:27:47;8.30;;;1.40;;
41705;SDS011;27385;51.096;17.190;2023-09-19T05:30:19;10.70;;;1.50;;
41705;SDS011;27385;51.096;17.190;2023-09-19T05:32:49;11.10;;;1.80;;
41705;SDS011;27385;51.096;17.190;2023-09-19T05:35:20;10.30;;;1.60;;
41705;SDS011;27385;51.096;17.190;2023-09-19T05:37:51;6.80;;;1.40;;
41705;SDS011;27385;51.096;17.190;2023-09-19T05:40:23;10.10;;;1.80;;
41705;SDS011;27385;51.096;17.190;2023-09-19T05:42:54;9.10;;;1.70;;
41705;SDS011;27385;51.096;17.190;2023-09-19T05:45:28;10.00;;;1.90;;
41705;SDS011;27385;51.096;17.190;2023-09-19T05:48:07;10.00;;;1.40;;
41705;SDS011;27385;51.096;17.190;2023-09-19T05:50:39;10.60;;;1.90;;
41705;SDS011;27385;51.096;17.190;2023-09-19T05:53:10;12.10;;;1.40;;
41705;SDS011;27385;51.096;17.190;2023-09-19T05:55:42;8.80;;;1.40;;
41705;SDS011;27385;51.096;17.190;2023-09-19T05:58:13;10.00;;;1.40;;
41705;SDS011;27385;51.096;17.190;2023-09-19T06:00:45;11.50;;;1.70;;
41705;SDS011;27385;51.096;17.190;2023-09-19T06:03:17;14.50;;;2.00;;
41705;SDS011;27385;51.096;17.190;2023-09-19T06:05:51;7.30;;;1.60;;
41705;SDS011;27385;51.096;17.190;2023-09-19T06:08:25;13.00;;;3.30;;
41705;SDS011;27385;51.096;17.190;2023-09-19T06:10:56;8.50;;;1.80;;
41705;SDS011;27385;51.096;17.190;2023-09-19T06:13:28;9.70;;;2.00;;
41705;SDS011;27385;51.096;17.190;2023-09-19T06:16:01;9.30;;;1.30;;
41705;SDS011;27385;51.096;17.190;2023-09-19T06:18:33;7.20;;;1.10;;
41705;SDS011;27385;51.096;17.190;2023-09-19T06:21:04;8.70;;;1.30;;
41705;SDS011;27385;51.096;17.190;2023-09-19T06:23:35;9.20;;;1.80;;
41705;SDS011;27385;51.096;17.190;2023-09-19T06:26:06;8.40;;;1.30;;
41705;SDS011;27385;51.096;17.190;2023-09-19T06:28:37;7.10;;;1.00;;
41705;SDS011;27385;51.096;17.190;2023-09-19T06:31:07;9.30;;;1.60;;
41705;SDS011;27385;51.096;17.190;2023-09-19T06:33:38;4.40;;;0.90;;
41705;SDS011;27385;51.096;17.190;2023-09-19T06:36:10;4.50;;;1.00;;
41705;SDS011;27385;51.096;17.190;2023-09-19T06:38:41;5.20;;;0.90;;
41705;SDS011;27385;51.096;17.190;2023-09-19T06:41:12;8.40;;;1.50;;
41705;SDS011;27385;51.096;17.190;2023-09-19T06:43:45;7.50;;;1.00;;
41705;SDS011;27385;51.096;17.190;2023-09-19T06:46:15;8.80;;;1.00;;
41705;SDS011;27385;51.096;17.190;2023-09-19T06:48:46;10.50;;;1.30;;
41705;SDS011;27385;51.096;17.190;2023-09-19T06:51:17;7.20;;;1.00;;
41705;SDS011;27385;51.096;17.190;2023-09-19T06:53:48;8.20;;;0.90;;
41705;SDS011;27385;51.096;17.190;2023-09-19T06:56:22;7.80;;;1.00;;
41705;SDS011;27385;51.096;17.190;2023-09-19T06:58:53;10.90;;;1.60;;
41705;SDS011;27385;51.096;17.190;2023-09-19T07:01:24;4.10;;;0.90;;
41705;SDS011;27385;51.096;17.190;2023-09-19T07:03:54;6.70;;;1.00;;
41705;SDS011;27385;51.096;17.190;2023-09-19T07:06:25;3.50;;;0.80;;
41705;SDS011;27385;51.096;17.190;2023-09-19T07:08:56;6.40;;;0.90;;
41705;SDS011;27385;51.096;17.190;2023-09-19T07:11:28;5.30;;;0.70;;
41705;SDS011;27385;51.096;17.190;2023-09-19T07:13:59;5.10;;;0.80;;
41705;SDS011;27385;51.096;17.190;2023-09-19T07:16:31;5.70;;;0.70;;
41705;SDS011;27385;51.096;17.190;2023-09-19T07:19:02;6.10;;;0.80;;
41705;SDS011;27385;51.096;17.190;2023-09-19T07:21:32;8.50;;;1.00;;
41705;SDS011;27385;51.096;17.190;2023-09-19T07:24:04;7.00;;;0.70;;
41705;SDS011;27385;51.096;17.190;2023-09-19T07:26:35;4.30;;;0.70;;
41705;SDS011;27385;51.096;17.190;2023-09-19T07:29:07;4.60;;;0.80;;
41705;SDS011;27385;51.096;17.190;2023-09-19T07:31:38;6.00;;;0.90;;
41705;SDS011;27385;51.096;17.190;2023-09-19T07:34:09;4.20;;;0.70;;
41705;SDS011;27385;51.096;17.190;2023-09-19T07:36:41;4.70;;;1.10;;
41705;SDS011;27385;51.096;17.190;2023-09-19T07:39:12;6.20;;;0.80;;
41705;SDS011;27385;51.096;17.190;2023-09-19T07:41:43;7.10;;;0.80;;
41705;SDS011;27385;51.096;17.190;2023-09-19T07:44:14;9.80;;;0.90;;
41705;SDS011;27385;51.096;17.190;2023-09-19T07:46:45;5.70;;;0.70;;
41705;SDS011;27385;51.096;17.190;2023-09-19T07:49:18;6.00;;;0.70;;
41705;SDS011;27385;51.096;17.190;2023-09-19T07:51:49;3.40;;;0.80;;
41705;SDS011;27385;51.096;17.190;2023-09-19T07:54:21;6.40;;;1.20;;
41705;SDS011;27385;51.096;17.190;2023-09-19T07:56:52;6.00;;;1.00;;
41705;SDS011;27385;51.096;17.190;2023-09-19T07:59:23;3.40;;;0.70;;
41705;SDS011;27385;51.096;17.190;2023-09-19T08:01:54;6.30;;;0.70;;
41705;SDS011;27385;51.096;17.190;2023-09-19T08:04:25;4.70;;;0.80;;
41705;SDS011;27385;51.096;17.190;2023-09-19T08:06:56;3.40;;;0.70;;
41705;SDS011;27385;51.096;17.190;2023-09-19T08:09:28;3.60;;;0.70;;
41705;SDS011;27385;51.096;17.190;2023-09-19T08:12:01;7.10;;;0.80;;
41705;SDS011;27385;51.096;17.190;2023-09-19T08:14:33;7.50;;;0.90;;
41705;SDS011;27385;51.096;17.190;2023-09-19T08:17:04;5.60;;;0.80;;
41705;SDS011;27385;51.096;17.190;2023-09-19T08:19:35;3.10;;;0.60;;
41705;SDS011;27385;51.096;17.190;2023-09-19T08:22:08;2.90;;;0.60;;
41705;SDS011;27385;51.096;17.190;2023-09-19T08:24:39;7.20;;;0.80;;
41705;SDS011;27385;51.096;17.190;2023-09-19T08:27:11;3.80;;;0.50;;
41705;SDS011;27385;51.096;17.190;2023-09-19T08:29:41;3.20;;;0.60;;
41705;SDS011;27385;51.096;17.190;2023-09-19T08:32:13;5.10;;;0.80;;
41705;SDS011;27385;51.096;17.190;2023-09-19T08:34:43;3.00;;;0.50;;
41705;SDS011;27385;51.096;17.190;2023-09-19T08:37:14;4.30;;;0.60;;
41705;SDS011;27385;51.096;17.190;2023-09-19T08:39:46;6.90;;;0.90;;
41705;SDS011;27385;51.096;17.190;2023-09-19T08:42:17;2.50;;;0.60;;
41705;SDS011;27385;51.096;17.190;2023-09-19T08:44:49;6.60;;;0.70;;
41705;SDS011;27385;51.096;17.190;2023-09-19T08:47:21;3.00;;;0.70;;
41705;SDS011;27385;51.096;17.190;2023-09-19T08:49:59;3.60;;;0.70;;
41705;SDS011;27385;51.096;17.190;2023-09-19T08:52:41;3.20;;;0.60;;
41705;SDS011;27385;51.096;17.190;2023-09-19T08:55:12;5.50;;;0.80;;
41705;SDS011;27385;51.096;17.190;2023-09-19T08:57:49;2.70;;;0.80;;
41705;SDS011;27385;51.096;17.190;2023-09-19T09:00:21;4.80;;;0.70;;
41705;SDS011;27385;51.096;17.190;2023-09-19T09:02:55;3.10;;;0.80;;
41705;SDS011;27385;51.096;17.190;2023-09-19T09:05:28;5.00;;;0.90;;
41705;SDS011;27385;51.096;17.190;2023-09-19T09:08:00;6.80;;;0.80;;
41705;SDS011;27385;51.096;17.190;2023-09-19T09:10:34;5.10;;;0.70;;
41705;SDS011;27385;51.096;17.190;2023-09-19T09:13:08;2.70;;;0.80;;
41705;SDS011;27385;51.096;17.190;2023-09-19T09:15:41;8.00;;;0.70;;
41705;SDS011;27385;51.096;17.190;2023-09-19T09:18:13;2.50;;;0.60;;
41705;SDS011;27385;51.096;17.190;2023-09-19T09:20:46;4.80;;;0.70;;
41705;SDS011;27385;51.096;17.190;2023-09-19T09:23:16;5.60;;;0.70;;
41705;SDS011;27385;51.096;17.190;2023-09-19T09:25:53;2.70;;;0.50;;
41705;SDS011;27385;51.096;17.190;2023-09-19T09:28:27;2.50;;;0.70;;
41705;SDS011;27385;51.096;17.190;2023-09-19T09:31:01;5.60;;;0.60;;
41705;SDS011;27385;51.096;17.190;2023-09-19T09:33:36;3.00;;;0.50;;
41705;SDS011;27385;51.096;17.190;2023-09-19T09:36:07;4.40;;;0.90;;
41705;SDS011;27385;51.096;17.190;2023-09-19T09:38:44;4.30;;;0.80;;
41705;SDS011;27385;51.096;17.190;2023-09-19T09:41:16;5.40;;;0.50;;
41705;SDS011;27385;51.096;17.190;2023-09-19T09:43:55;4.60;;;0.70;;
41705;SDS011;27385;51.096;17.190;2023-09-19T09:46:43;5.40;;;0.70;;
41705;SDS011;27385;51.096;17.190;2023-09-19T09:49:48;4.60;;;0.80;;
41705;SDS011;27385;51.096;17.190;2023-09-19T09:52:45;2.60;;;0.60;;
41705;SDS011;27385;51.096;17.190;2023-09-19T09:55:16;5.40;;;0.60;;
41705;SDS011;27385;51.096;17.190;2023-09-19T09:57:48;4.50;;;0.60;;
41705;SDS011;27385;51.096;17.190;2023-09-19T10:00:53;3.60;;;0.80;;
41705;SDS011;27385;51.096;17.190;2023-09-19T10:03:33;5.10;;;0.60;;
41705;SDS011;27385;51.096;17.190;2023-09-19T10:06:08;3.10;;;0.60;;
41705;SDS011;27385;51.096;17.190;2023-09-19T10:08:58;2.90;;;0.50;;
41705;SDS011;27385;51.096;17.190;2023-09-19T10:11:40;3.90;;;0.50;;
41705;SDS011;27385;51.096;17.190;2023-09-19T10:14:13;4.30;;;0.50;;
41705;SDS011;27385;51.096;17.190;2023-09-19T10:16:47;3.40;;;0.80;;
41705;SDS011;27385;51.096;17.190;2023-09-19T10:19:23;3.80;;;0.60;;
41705;SDS011;27385;51.096;17.190;2023-09-19T10:22:02;4.30;;;0.50;;
41705;SDS011;27385;51.096;17.190;2023-09-19T10:24:37;5.10;;;0.70;;
41705;SDS011;27385;51.096;17.190;2023-09-19T10:27:09;5.00;;;0.50;;
41705;SDS011;27385;51.096;17.190;2023-09-19T10:29:39;3.20;;;0.60;;
41705;SDS011;27385;51.096;17.190;2023-09-19T10:32:15;3.20;;;0.60;;
41705;SDS011;27385;51.096;17.190;2023-09-19T10:34:47;3.40;;;0.60;;
41705;SDS011;27385;51.096;17.190;2023-09-19T10:37:23;5.60;;;0.70;;
41705;SDS011;27385;51.096;17.190;2023-09-19T10:39:56;2.20;;;0.50;;
41705;SDS011;27385;51.096;17.190;2023-09-19T10:42:27;2.60;;;0.60;;
41705;SDS011;27385;51.096;17.190;2023-09-19T10:45:01;4.10;;;0.40;;
41705;SDS011;27385;51.096;17.190;2023-09-19T10:47:35;2.70;;;0.50;;
41705;SDS011;27385;51.096;17.190;2023-09-19T10:50:07;6.60;;;0.60;;
41705;SDS011;27385;51.096;17.190;2023-09-19T10:52:49;2.80;;;0.60;;
41705;SDS011;27385;51.096;17.190;2023-09-19T10:55:26;2.10;;;0.50;;
41705;SDS011;27385;51.096;17.190;2023-09-19T10:58:00;3.30;;;0.70;;
41705;SDS011;27385;51.096;17.190;2023-09-19T11:00:51;2.40;;;0.60;;
41705;SDS011;27385;51.096;17.190;2023-09-19T11:03:24;2.40;;;0.50;;
41705;SDS011;27385;51.096;17.190;2023-09-19T11:06:02;3.20;;;0.70;;
41705;SDS011;27385;51.096;17.190;2023-09-19T11:11:50;2.70;;;0.60;;
41705;SDS011;27385;51.096;17.190;2023-09-19T11:14:32;3.60;;;0.70;;
41705;SDS011;27385;51.096;17.190;2023-09-19T11:20:20;2.50;;;0.50;;
41705;SDS011;27385;51.096;17.190;2023-09-19T11:23:19;4.00;;;0.50;;
41705;SDS011;27385;51.096;17.190;2023-09-19T11:25:54;1.80;;;0.40;;
41705;SDS011;27385;51.096;17.190;2023-09-19T11:28:31;2.40;;;0.40;;
41705;SDS011;27385;51.096;17.190;2023-09-19T11:40:35;2.50;;;0.50;;
41705;SDS011;27385;51.096;17.190;2023-09-19T11:46:06;3.70;;;0.40;;
41705;SDS011;27385;51.096;17.190;2023-09-19T11:48:41;4.60;;;0.50;;
41705;SDS011;27385;51.096;17.190;2023-09-19T11:51:17;3.80;;;0.40;;
41705;SDS011;27385;51.096;17.190;2023-09-19T11:53:51;2.00;;;0.40;;
41705;SDS011;27385;51.096;17.190;2023-09-19T11:56:23;2.00;;;0.30;;
41705;SDS011;27385;51.096;17.190;2023-09-19T11:58:56;2.50;;;0.30;;
41705;SDS011;27385;51.096;17.190;2023-09-19T12:01:28;1.90;;;0.40;;
41705;SDS011;27385;51.096;17.190;2023-09-19T12:04:01;1.30;;;0.30;;
41705;SDS011;27385;51.096;17.190;2023-09-19T12:06:33;1.50;;;0.30;;
41705;SDS011;27385;51.096;17.190;2023-09-19T12:09:08;4.40;;;0.50;;
41705;SDS011;27385;51.096;17.190;2023-09-19T12:11:44;2.60;;;0.40;;
41705;SDS011;27385;51.096;17.190;2023-09-19T12:14:22;2.50;;;0.40;;
41705;SDS011;27385;51.096;17.190;2023-09-19T12:16:57;3.00;;;0.40;;
41705;SDS011;27385;51.096;17.190;2023-09-19T12:19:29;3.80;;;0.30;;
41705;SDS011;27385;51.096;17.190;2023-09-19T12:22:00;4.20;;;0.50;;
41705;SDS011;27385;51.096;17.190;2023-09-19T12:24:33;4.70;;;0.40;;
41705;SDS011;27385;51.096;17.190;2023-09-19T12:27:06;4.00;;;0.50;;
41705;SDS011;27385;51.096;17.190;2023-09-19T12:29:43;3.10;;;0.30;;
41705;SDS011;27385;51.096;17.190;2023-09-19T12:32:16;3.10;;;0.40;;
41705;SDS011;27385;51.096;17.190;2023-09-19T12:34:52;1.60;;;0.30;;
41705;SDS011;27385;51.096;17.190;2023-09-19T12:37:23;2.10;;;0.30;;
41705;SDS011;27385;51.096;17.190;2023-09-19T12:40:04;1.90;;;0.40;;
41705;SDS011;27385;51.096;17.190;2023-09-19T12:42:45;3.90;;;0.40;;
41705;SDS011;27385;51.096;17.190;2023-09-19T12:45:17;4.10;;;0.50;;
41705;SDS011;27385;51.096;17.190;2023-09-19T12:51:00;2.10;;;0.40;;
41705;SDS011;27385;51.096;17.190;2023-09-19T12:53:36;3.00;;;0.30;;
41705;SDS011;27385;51.096;17.190;2023-09-19T12:56:10;2.90;;;0.40;;
41705;SDS011;27385;51.096;17.190;2023-09-19T12:58:51;2.10;;;0.30;;
41705;SDS011;27385;51.096;17.190;2023-09-19T13:01:24;5.20;;;0.50;;
41705;SDS011;27385;51.096;17.190;2023-09-19T13:06:46;2.60;;;0.30;;
41705;SDS011;27385;51.096;17.190;2023-09-19T13:09:18;2.60;;;0.40;;
41705;SDS011;27385;51.096;17.190;2023-09-19T13:11:50;2.80;;;0.40;;
41705;SDS011;27385;51.096;17.190;2023-09-19T13:14:22;4.70;;;0.50;;
41705;SDS011;27385;51.096;17.190;2023-09-19T13:16:56;2.60;;;0.40;;
41705;SDS011;27385;51.096;17.190;2023-09-19T13:19:40;3.80;;;0.80;;
41705;SDS011;27385;51.096;17.190;2023-09-19T13:25:09;2.70;;;0.30;;
41705;SDS011;27385;51.096;17.190;2023-09-19T13:27:43;2.40;;;0.30;;
41705;SDS011;27385;51.096;17.190;2023-09-19T13:30:19;2.90;;;0.40;;
41705;SDS011;27385;51.096;17.190;2023-09-19T13:33:03;2.80;;;0.40;;
41705;SDS011;27385;51.096;17.190;2023-09-19T13:35:35;1.20;;;0.30;;
41705;SDS011;27385;51.096;17.190;2023-09-19T13:38:08;7.60;;;0.50;;
41705;SDS011;27385;51.096;17.190;2023-09-19T13:40:40;3.00;;;0.40;;
41705;SDS011;27385;51.096;17.190;2023-09-19T13:43:11;1.30;;;0.30;;
41705;SDS011;27385;51.096;17.190;2023-09-19T13:45:44;6.40;;;0.70;;
41705;SDS011;27385;51.096;17.190;2023-09-19T13:48:15;2.70;;;0.40;;
41705;SDS011;27385;51.096;17.190;2023-09-19T13:50:50;4.10;;;0.50;;
41705;SDS011;27385;51.096;17.190;2023-09-19T13:53:21;1.70;;;0.30;;
41705;SDS011;27385;51.096;17.190;2023-09-19T13:55:54;2.30;;;0.30;;
41705;SDS011;27385;51.096;17.190;2023-09-19T13:58:24;4.20;;;0.60;;
41705;SDS011;27385;51.096;17.190;2023-09-19T14:00:57;3.60;;;0.20;;
41705;SDS011;27385;51.096;17.190;2023-09-19T14:03:28;5.50;;;0.50;;
41705;SDS011;27385;51.096;17.190;2023-09-19T14:05:59;2.20;;;0.30;;
41705;SDS011;27385;51.096;17.190;2023-09-19T14:08:31;5.00;;;0.60;;
41705;SDS011;27385;51.096;17.190;2023-09-19T14:11:06;1.80;;;0.30;;
41705;SDS011;27385;51.096;17.190;2023-09-19T14:13:37;1.90;;;0.30;;
41705;SDS011;27385;51.096;17.190;2023-09-19T14:16:08;2.70;;;0.30;;
41705;SDS011;27385;51.096;17.190;2023-09-19T14:18:39;2.40;;;0.40;;
41705;SDS011;27385;51.096;17.190;2023-09-19T14:21:10;2.30;;;0.30;;
41705;SDS011;27385;51.096;17.190;2023-09-19T14:23:42;2.20;;;0.30;;
41705;SDS011;27385;51.096;17.190;2023-09-19T14:26:13;3.50;;;0.40;;
41705;SDS011;27385;51.096;17.190;2023-09-19T14:28:44;2.90;;;0.20;;
41705;SDS011;27385;51.096;17.190;2023-09-19T14:31:15;4.50;;;0.70;;
41705;SDS011;27385;51.096;17.190;2023-09-19T14:33:54;2.40;;;0.40;;
41705;SDS011;27385;51.096;17.190;2023-09-19T14:36:27;0.80;;;0.20;;
41705;SDS011;27385;51.096;17.190;2023-09-19T14:38:59;4.50;;;0.40;;
41705;SDS011;27385;51.096;17.190;2023-09-19T14:41:31;3.80;;;0.40;;
41705;SDS011;27385;51.096;17.190;2023-09-19T14:44:03;2.90;;;0.40;;
41705;SDS011;27385;51.096;17.190;2023-09-19T14:46:36;2.20;;;0.30;;
41705;SDS011;27385;51.096;17.190;2023-09-19T14:49:08;2.70;;;0.40;;
41705;SDS011;27385;51.096;17.190;2023-09-19T14:51:39;2.60;;;0.40;;
41705;SDS011;27385;51.096;17.190;2023-09-19T14:54:12;3.10;;;0.30;;
41705;SDS011;27385;51.096;17.190;2023-09-19T14:56:44;3.50;;;0.40;;
41705;SDS011;27385;51.096;17.190;2023-09-19T14:59:31;1.90;;;0.40;;
41705;SDS011;27385;51.096;17.190;2023-09-19T15:02:05;2.70;;;0.50;;
41705;SDS011;27385;51.096;17.190;2023-09-19T15:04:36;2.10;;;0.40;;
41705;SDS011;27385;51.096;17.190;2023-09-19T15:07:08;3.20;;;0.40;;
41705;SDS011;27385;51.096;17.190;2023-09-19T15:09:41;1.60;;;0.40;;
41705;SDS011;27385;51.096;17.190;2023-09-19T15:12:12;5.50;;;0.50;;
41705;SDS011;27385;51.096;17.190;2023-09-19T15:14:44;2.70;;;0.40;;
41705;SDS011;27385;51.096;17.190;2023-09-19T15:17:15;2.80;;;0.50;;
41705;SDS011;27385;51.096;17.190;2023-09-19T15:19:49;1.50;;;0.30;;
41705;SDS011;27385;51.096;17.190;2023-09-19T15:22:21;4.40;;;0.40;;
41705;SDS011;27385;51.096;17.190;2023-09-19T15:24:52;2.40;;;0.40;;
41705;SDS011;27385;51.096;17.190;2023-09-19T15:27:24;2.30;;;0.40;;
41705;SDS011;27385;51.096;17.190;2023-09-19T15:29:54;3.30;;;0.40;;
41705;SDS011;27385;51.096;17.190;2023-09-19T15:32:26;1.80;;;0.30;;
41705;SDS011;27385;51.096;17.190;2023-09-19T15:34:57;1.40;;;0.40;;
41705;SDS011;27385;51.096;17.190;2023-09-19T15:37:28;3.60;;;0.30;;
41705;SDS011;27385;51.096;17.190;2023-09-19T15:39:59;2.20;;;0.30;;
41705;SDS011;27385;51.096;17.190;2023-09-19T15:42:31;2.40;;;0.30;;